Time;durP1;ratioP1;P1;durP2;ratioP2;P2;SDS_P1;SDS_P2;PMS_P1;PMS_P2;Temp;Humidity;BMP_temperature;BMP_pressure;BME280_temperature;BME280_humidity;BME280_pressure;Samples;Min_cycle;Max_cycle;Signal;HPM_P1;HPM_P2
2023/02/15 08:34:26;;;;;;;28.13;15.27;;;;;;;8.80;54.43;97711.22;2087243;28;20559;-59
2023/02/15 08:35:27;;;;;;;30.77;14.88;;;;;;;8.80;54.47;97708.63;2087232;28;20215;-59
2023/02/15 08:36:31;;;;;;;35.00;15.15;;;;;;;8.99;54.87;97704.72;2086689;28;20693;-59
2023/02/15 08:37:32;;;;;;;27.70;15.02;;;;;;;9.25;53.73;97700.69;2083936;28;20208;-59
2023/02/15 08:38:34;;;;;;;33.17;14.90;;;;;;;9.64;53.66;97711.09;2074511;28;20279;-59
2023/02/15 08:39:36;;;;;;;26.98;15.00;;;;;;;9.86;52.89;97705.34;2067883;28;20197;-59
2023/02/15 08:40:37;;;;;;;47.55;15.07;;;;;;;9.78;53.36;97696.84;2070110;28;20208;-59
2023/02/15 08:41:42;;;;;;;38.30;14.25;;;;;;;10.49;52.36;97699.41;2071540;28;20210;-59
2023/02/15 08:42:43;;;;;;;40.92;13.75;;;;;;;10.88;51.13;97705.28;2072334;28;20271;-59
2023/02/15 08:43:48;;;;;;;34.90;15.90;;;;;;;12.11;47.64;97704.09;2069992;28;20225;-59
2023/02/15 08:44:51;;;;;;;35.50;13.98;;;;;;;12.44;46.43;97701.22;2072898;28;20233;-59
2023/02/15 08:45:52;;;;;;;24.90;14.75;;;;;;;12.45;46.09;97695.91;2073040;28;20244;-59
2023/02/15 08:46:54;;;;;;;26.33;14.77;;;;;;;12.37;45.80;97697.97;2073623;28;20310;-58
2023/02/15 08:47:56;;;;;;;34.95;14.63;;;;;;;12.69;45.66;97709.06;2070803;28;20225;-59
2023/02/15 08:48:58;;;;;;;32.08;15.18;;;;;;;13.32;43.96;97708.44;2070753;28;20202;-59
2023/02/15 08:49:59;;;;;;;28.67;16.60;;;;;;;12.42;44.69;97701.28;2069161;28;20643;-62
2023/02/15 08:51:27;;;;;;;29.98;15.90;;;;;;;12.02;45.64;97707.88;2067183;28;20198;-61
2023/02/15 08:52:28;;;;;;;28.65;17.23;;;;;;;11.70;46.56;97707.16;2070594;28;20534;-61
2023/02/15 08:53:30;;;;;;;24.15;16.48;;;;;;;12.65;45.02;97710.94;2069465;28;20226;-59
2023/02/15 08:54:31;;;;;;;24.60;17.05;;;;;;;12.32;45.09;97713.84;2068207;28;20741;-59
2023/02/15 08:55:33;;;;;;;31.58;17.40;;;;;;;12.06;45.52;97701.63;2068376;28;20649;-59
2023/02/15 08:56:37;;;;;;;28.20;15.40;;;;;;;12.76;44.56;97704.44;2066127;28;20228;-59
2023/02/15 08:57:44;;;;;;;32.88;16.70;;;;;;;12.90;43.56;97708.25;2073248;28;20198;-59
2023/02/15 08:58:46;;;;;;;27.33;16.67;;;;;;;12.60;44.50;97710.25;2071357;28;20232;-59
2023/02/15 08:59:48;;;;;;;30.63;17.38;;;;;;;11.99;44.90;97711.44;2068082;28;20709;-59
2023/02/15 09:00:51;;;;;;;30.10;17.77;;;;;;;10.42;47.51;97696.97;2072024;28;20208;-59
2023/02/15 09:01:53;;;;;;;30.63;16.83;;;;;;;11.77;46.11;97706.06;2072055;28;20290;-59
2023/02/15 09:02:55;;;;;;;25.10;16.55;;;;;;;11.39;46.72;97702.91;2068201;28;20202;-59
2023/02/15 09:04:06;;;;;;;32.17;17.83;;;;;;;11.06;46.92;97703.88;2064674;28;20201;-59
2023/02/15 09:05:07;;;;;;;29.20;16.63;;;;;;;11.56;46.57;97708.44;2064867;28;20285;-59
2023/02/15 09:06:08;;;;;;;28.42;16.90;;;;;;;11.84;46.05;97702.31;2069122;28;20298;-59
2023/02/15 09:07:10;;;;;;;36.63;16.50;;;;;;;12.16;45.55;97705.63;2071248;28;20645;-59
2023/02/15 09:08:11;;;;;;;31.00;17.42;;;;;;;11.97;45.49;97704.56;2070244;28;20194;-59
2023/02/15 09:09:13;;;;;;;46.42;16.65;;;;;;;10.66;47.91;97712.00;2068525;28;20206;-59
2023/02/15 09:10:15;;;;;;;38.65;16.75;;;;;;;10.92;48.23;97709.50;2067633;28;20224;-59
2023/02/15 09:11:37;;;;;;;31.08;16.95;;;;;;;11.22;47.44;97706.88;2065247;28;20209;-58
2023/02/15 09:12:39;;;;;;;37.35;15.23;;;;;;;11.34;47.03;97700.41;2071581;28;20202;-59
2023/02/15 09:13:40;;;;;;;34.58;17.35;;;;;;;11.73;46.55;97697.44;2073189;28;20283;-59
2023/02/15 09:14:42;;;;;;;23.23;14.32;;;;;;;12.01;46.43;97696.56;2074687;28;20212;-59
2023/02/15 09:15:43;;;;;;;28.67;15.80;;;;;;;12.29;45.69;97698.22;2073018;28;20197;-59
2023/02/15 09:16:48;;;;;;;28.00;16.08;;;;;;;12.96;44.98;97696.69;2067606;28;20203;-59
2023/02/15 09:17:49;;;;;;;25.67;15.27;;;;;;;12.78;44.47;97695.59;2073981;28;20285;-59
2023/02/15 09:18:51;;;;;;;37.80;15.45;;;;;;;12.70;45.28;97701.13;2070791;28;20337;-59
2023/02/15 09:19:53;;;;;;;27.77;14.75;;;;;;;13.11;44.03;97695.25;2072026;28;20654;-59
2023/02/15 09:20:55;;;;;;;32.22;16.08;;;;;;;13.42;43.73;97701.09;2071821;28;20791;-59
2023/02/15 09:21:57;;;;;;;28.30;15.07;;;;;;;12.86;44.67;97696.19;2070816;28;21126;-59
2023/02/15 09:22:59;;;;;;;26.80;15.27;;;;;;;12.64;45.02;97693.50;2066954;28;20605;-59
2023/02/15 09:24:04;;;;;;;24.10;14.95;;;;;;;12.47;45.26;97691.50;2072011;28;20193;-58
2023/02/15 09:25:06;;;;;;;26.25;14.50;;;;;;;12.43;45.58;97689.91;2067835;28;20226;-59
2023/02/15 09:26:14;;;;;;;35.67;14.88;;;;;;;12.24;46.28;97677.44;2068340;28;20654;-60
2023/02/15 09:27:15;;;;;;;22.70;14.30;;;;;;;12.73;45.86;97692.31;2069625;28;20198;-60
2023/02/15 09:28:17;;;;;;;22.48;13.65;;;;;;;13.81;43.73;97682.91;2068341;28;20704;-60
2023/02/15 09:29:19;;;;;;;27.67;13.70;;;;;;;13.74;43.88;97691.09;2067663;28;20212;-61
2023/02/15 09:30:21;;;;;;;26.23;14.45;;;;;;;14.46;42.62;97685.44;2068393;28;20226;-60
2023/02/15 09:31:25;;;;;;;25.60;15.02;;;;;;;14.15;43.06;97691.16;2072748;28;20198;-61
2023/02/15 09:32:27;;;;;;;27.08;15.80;;;;;;;14.72;41.94;97686.06;2072261;28;20205;-59
2023/02/15 09:33:28;;;;;;;31.65;14.95;;;;;;;14.76;42.38;97687.63;2068861;28;20221;-59
2023/02/15 09:34:30;;;;;;;30.05;15.10;;;;;;;14.28;42.47;97686.22;2072171;28;20209;-58
2023/02/15 09:35:34;;;;;;;23.95;13.35;;;;;;;14.63;42.35;97684.66;2069763;28;20218;-59
2023/02/15 09:36:37;;;;;;;32.30;14.43;;;;;;;14.71;42.13;97686.16;2070341;28;20259;-59
2023/02/15 09:37:39;;;;;;;22.00;13.73;;;;;;;15.18;41.78;97683.97;2069440;28;20198;-59
2023/02/15 09:38:41;;;;;;;18.23;12.52;;;;;;;15.89;40.64;97681.53;2066656;28;20670;-59
2023/02/15 09:39:43;;;;;;;29.60;14.43;;;;;;;15.55;40.63;97688.41;2069101;28;20228;-59
2023/02/15 09:41:12;;;;;;;22.42;13.15;;;;;;;15.34;40.95;97685.88;2072992;28;20198;-58
2023/02/15 09:42:37;;;;;;;23.63;12.55;;;;;;;14.54;42.62;97687.72;2057192;28;20213;-58
2023/02/15 09:43:56;;;;;;;24.15;13.60;;;;;;;15.70;40.76;97682.38;2066023;28;20640;-59
2023/02/15 09:45:10;;;;;;;26.67;13.57;;;;;;;15.51;41.05;97682.44;2070476;28;20190;-58
2023/02/15 09:46:37;;;;;;;19.08;13.45;;;;;;;15.51;40.97;97683.31;2064815;28;20216;-59
2023/02/15 09:48:09;;;;;;;24.85;13.13;;;;;;;15.25;41.36;97676.63;2064179;28;20562;-59
2023/02/15 09:49:38;;;;;;;21.20;13.50;;;;;;;15.98;40.63;97674.00;2062793;28;20698;-59
2023/02/15 09:50:51;;;;;;;22.38;13.52;;;;;;;15.64;41.13;97680.06;2061724;28;20257;-59
2023/02/15 09:52:25;;;;;;;18.83;10.90;;;;;;;16.48;39.79;97676.75;2065255;28;20854;-59
2023/02/15 09:53:34;;;;;;;32.40;13.70;;;;;;;15.85;40.55;97672.91;2064712;28;20819;-59
2023/02/15 09:54:52;;;;;;;21.23;11.73;;;;;;;15.67;40.80;97677.28;2066529;28;20221;-60
2023/02/15 09:56:15;;;;;;;27.63;12.95;;;;;;;16.19;40.48;97676.50;2062965;28;20199;-59
2023/02/15 09:57:29;;;;;;;21.63;12.80;;;;;;;15.73;40.92;97668.22;2066063;28;20210;-59
2023/02/15 09:58:55;;;;;;;19.58;11.95;;;;;;;15.96;40.78;97678.50;2065856;28;20572;-59
2023/02/15 10:00:15;;;;;;;18.58;11.68;;;;;;;16.02;40.35;97671.22;2063256;28;20194;-59
2023/02/15 10:01:22;;;;;;;19.23;12.73;;;;;;;16.13;40.72;97672.38;2065442;28;20236;-59
2023/02/15 10:02:39;;;;;;;16.17;11.23;;;;;;;16.37;40.04;97669.41;2066442;28;20938;-58
2023/02/15 10:03:53;;;;;;;18.65;12.70;;;;;;;15.56;41.11;97669.91;2065950;28;20737;-59
2023/02/15 10:05:07;;;;;;;21.58;13.15;;;;;;;16.15;40.64;97672.28;2062652;28;20236;-59
2023/02/15 10:06:41;;;;;;;41.28;11.88;;;;;;;16.46;40.15;97670.72;2065070;28;20219;-59
2023/02/15 10:07:51;;;;;;;21.83;11.80;;;;;;;16.88;39.49;97673.81;2064845;28;20202;-59
2023/02/15 10:09:14;;;;;;;17.70;11.73;;;;;;;16.30;40.27;97673.28;2064726;28;20222;-58
2023/02/15 10:10:33;;;;;;;18.73;12.60;;;;;;;16.84;39.42;97681.03;2060496;28;20207;-58
2023/02/15 10:11:49;;;;;;;21.88;12.50;;;;;;;16.77;39.68;97677.88;2066558;28;20342;-59
2023/02/15 10:12:59;;;;;;;19.25;12.68;;;;;;;16.87;39.41;97675.56;2067108;28;20198;-59
2023/02/15 10:14:09;;;;;;;19.55;12.30;;;;;;;16.23;40.21;97669.28;2065460;28;20689;-59
2023/02/15 10:15:14;;;;;;;21.90;11.77;;;;;;;16.10;41.05;97679.56;2064472;28;20218;-59
2023/02/15 10:16:51;;;;;;;29.67;11.40;;;;;;;16.11;40.41;97671.63;2064101;28;20650;-60
2023/02/15 10:18:14;;;;;;;23.05;12.02;;;;;;;17.34;40.15;97670.44;2063721;28;21269;-59
2023/02/15 10:19:49;;;;;;;19.73;10.55;;;;;;;18.02;38.21;97671.91;2065087;28;20874;-60
2023/02/15 10:21:02;;;;;;;17.65;10.10;;;;;;;18.47;37.36;97667.44;2062594;28;20234;-60
2023/02/15 10:22:18;;;;;;;19.70;10.77;;;;;;;18.51;37.22;97673.41;2061640;28;20195;-59
2023/02/15 10:23:29;;;;;;;23.25;11.93;;;;;;;18.03;38.08;97674.47;2060444;28;20225;-59
2023/02/15 10:25:04;;;;;;;16.55;10.40;;;;;;;18.39;37.82;97673.19;2056584;28;20665;-60
2023/02/15 10:26:26;;;;;;;16.60;11.23;;;;;;;18.65;37.60;97664.63;2052555;28;20253;-59
2023/02/15 10:27:31;;;;;;;17.95;10.70;;;;;;;18.67;37.04;97671.53;2060662;28;20206;-59
2023/02/15 10:28:46;;;;;;;18.95;10.30;;;;;;;18.90;37.01;97669.28;2064808;28;20276;-59
2023/02/15 10:29:55;;;;;;;22.25;11.43;;;;;;;18.70;37.12;97671.34;2068632;28;20202;-59
2023/02/15 10:31:17;;;;;;;22.48;10.82;;;;;;;17.92;37.97;97668.91;2067015;28;20214;-59
2023/02/15 10:32:26;;;;;;;21.08;11.00;;;;;;;17.94;38.41;97675.84;2062473;28;20854;-59
2023/02/15 10:33:37;;;;;;;18.58;10.30;;;;;;;17.85;38.44;97671.06;2064562;28;20240;-59
2023/02/15 10:35:00;;;;;;;18.02;11.20;;;;;;;17.98;38.57;97667.72;2065640;28;20230;-59
2023/02/15 10:36:16;;;;;;;16.98;9.80;;;;;;;18.36;38.54;97662.81;2060650;28;20213;-59
2023/02/15 10:37:26;;;;;;;20.00;11.68;;;;;;;18.58;38.03;97665.00;2060986;28;20202;-59
2023/02/15 10:38:44;;;;;;;18.10;10.43;;;;;;;19.09;37.59;97666.34;2061905;28;20350;-59
2023/02/15 10:39:51;;;;;;;16.13;9.93;;;;;;;19.45;37.16;97667.56;2065311;28;20207;-59
2023/02/15 10:41:07;;;;;;;19.98;12.30;;;;;;;18.78;37.44;97660.31;2065600;28;20207;-59
2023/02/15 10:42:15;;;;;;;17.40;10.52;;;;;;;19.18;37.15;97664.91;2064520;28;20281;-59
2023/02/15 10:44:01;;;;;;;17.00;9.55;;;;;;;19.04;37.29;97660.50;2063361;28;20221;-59
2023/02/15 10:45:21;;;;;;;18.73;10.20;;;;;;;19.04;37.33;97657.84;2048926;28;20213;-59
2023/02/15 10:46:43;;;;;;;14.15;10.10;;;;;;;19.37;36.92;97657.47;2062045;28;20194;-59
2023/02/15 10:48:06;;;;;;;20.55;9.05;;;;;;;18.79;37.76;97656.69;2065413;28;20230;-60
2023/02/15 10:49:26;;;;;;;18.77;9.73;;;;;;;19.64;36.70;97655.78;2063190;28;20222;-59
2023/02/15 10:50:48;;;;;;;15.57;9.75;;;;;;;19.33;37.18;97655.16;2065170;28;20194;-59
2023/02/15 10:52:09;;;;;;;18.17;11.30;;;;;;;19.41;37.16;97652.84;2063705;28;20289;-59
2023/02/15 10:53:23;;;;;;;16.75;10.30;;;;;;;19.64;37.06;97658.44;2061290;28;20533;-59
2023/02/15 10:54:54;;;;;;;20.33;10.73;;;;;;;19.33;37.56;97652.50;2061948;28;20795;-59
2023/02/15 10:56:00;;;;;;;22.92;10.50;;;;;;;19.82;37.28;97661.66;2062034;28;20203;-59
2023/02/15 10:57:05;;;;;;;17.00;10.13;;;;;;;19.78;36.40;97661.00;2066226;28;20656;-59
2023/02/15 10:58:13;;;;;;;16.52;8.82;;;;;;;19.34;37.07;97655.03;2058301;28;20317;-59
2023/02/15 10:59:56;;;;;;;16.60;9.40;;;;;;;19.16;37.43;97656.22;2064650;28;20582;-59
2023/02/15 11:01:19;;;;;;;14.45;9.80;;;;;;;19.29;37.55;97653.63;2062705;28;20198;-59
2023/02/15 11:02:46;;;;;;;20.92;11.23;;;;;;;19.63;37.00;97651.44;2064269;28;20285;-59
2023/02/15 11:04:30;;;;;;;18.08;10.07;;;;;;;19.80;36.46;97655.63;2060123;28;20230;-59
2023/02/15 11:05:54;;;;;;;18.58;10.27;;;;;;;19.75;37.29;97651.47;2066283;28;20198;-59
2023/02/15 11:07:28;;;;;;;14.32;9.52;;;;;;;20.14;36.50;97651.59;2068441;28;20707;-60
2023/02/15 11:08:35;;;;;;;18.63;10.98;;;;;;;20.48;35.81;97643.13;2044966;28;20803;-59
2023/02/15 11:09:42;;;;;;;18.77;10.98;;;;;;;19.83;36.62;97642.22;2060040;28;20292;-59
2023/02/15 11:10:51;;;;;;;17.02;9.32;;;;;;;20.00;36.28;97644.59;2066465;28;20656;-59
2023/02/15 11:11:57;;;;;;;19.95;9.20;;;;;;;19.64;36.52;97632.81;2064302;28;20202;-59
2023/02/15 11:13:05;;;;;;;17.13;9.70;;;;;;;20.41;35.80;97642.72;2063270;28;20195;-59
2023/02/15 11:14:17;;;;;;;14.25;9.40;;;;;;;20.06;36.10;97636.22;2062088;28;20523;-59
2023/02/15 11:15:34;;;;;;;15.88;8.98;;;;;;;19.11;37.43;97642.41;2060018;28;20207;-59
2023/02/15 11:16:40;;;;;;;19.10;8.77;;;;;;;20.04;36.81;97632.81;2064851;28;20720;-59
2023/02/15 11:17:50;;;;;;;12.75;7.95;;;;;;;20.00;36.59;97633.97;2063700;28;20202;-59
2023/02/15 11:18:58;;;;;;;24.60;8.43;;;;;;;20.07;36.99;97639.72;2061819;28;20721;-59
2023/02/15 11:20:15;;;;;;;17.58;9.20;;;;;;;19.34;38.34;97639.16;2064550;28;20540;-59
2023/02/15 11:21:16;;;;;;;13.68;9.55;;;;;;;18.70;38.52;97630.81;2063510;28;20619;-59
2023/02/15 11:22:18;;;;;;;16.38;9.55;;;;;;;18.46;39.12;97630.53;2064044;28;20629;-59
2023/02/15 11:23:20;;;;;;;15.48;8.70;;;;;;;20.29;36.80;97633.81;2066107;28;20257;-60
2023/02/15 11:24:27;;;;;;;14.10;8.25;;;;;;;20.29;36.59;97636.47;2064398;28;20204;-59
2023/02/15 11:25:34;;;;;;;15.73;8.20;;;;;;;19.94;36.49;97636.19;2062980;28;20236;-60
2023/02/15 11:26:57;;;;;;;12.00;8.27;;;;;;;19.68;36.83;97633.44;2060836;28;20199;-59
2023/02/15 11:28:03;;;;;;;17.63;9.88;;;;;;;19.96;36.70;97623.69;2066266;28;20664;-59
2023/02/15 11:29:15;;;;;;;15.98;8.32;;;;;;;19.64;36.90;97635.47;2065600;28;20229;-59
2023/02/15 11:30:27;;;;;;;16.80;9.63;;;;;;;20.22;36.50;97632.53;2063041;28;20198;-59
2023/02/15 11:31:41;;;;;;;18.67;9.35;;;;;;;20.50;36.10;97631.47;2063740;28;20204;-59
2023/02/15 11:32:51;;;;;;;20.67;8.73;;;;;;;20.41;35.95;97629.44;2065632;28;20200;-59
2023/02/15 11:34:00;;;;;;;14.55;8.20;;;;;;;20.19;35.48;97625.63;2061877;28;20260;-59
2023/02/15 11:35:17;;;;;;;15.90;8.35;;;;;;;19.96;36.19;97629.84;2064989;28;20197;-60
2023/02/15 11:36:24;;;;;;;14.48;8.45;;;;;;;20.47;36.00;97628.19;2063599;28;20190;-59
2023/02/15 11:37:40;;;;;;;21.95;8.63;;;;;;;21.02;34.92;97618.16;2065801;28;20333;-59
2023/02/15 11:38:43;;;;;;;23.25;8.20;;;;;;;20.42;35.93;97617.03;2060097;28;20280;-58
2023/02/15 11:39:51;;;;;;;12.20;8.27;;;;;;;21.13;35.21;97614.75;2062520;28;20202;-59
2023/02/15 11:41:03;;;;;;;14.90;8.35;;;;;;;21.17;34.58;97617.03;2064229;28;20209;-59
2023/02/15 11:42:13;;;;;;;14.32;8.45;;;;;;;21.26;34.38;97620.00;2064444;28;20384;-58
2023/02/15 11:43:38;;;;;;;14.70;8.57;;;;;;;20.91;35.59;97618.91;2064498;28;20245;-59
2023/02/15 11:45:11;;;;;;;14.70;8.18;;;;;;;20.95;34.92;97616.88;2066677;28;20205;-58
2023/02/15 11:46:14;;;;;;;19.45;7.75;;;;;;;20.81;35.42;97610.78;2064770;28;20205;-58
2023/02/15 11:47:16;;;;;;;20.63;8.30;;;;;;;19.78;36.87;97615.13;2062766;28;20217;-58
2023/02/15 11:48:17;;;;;;;14.00;8.75;;;;;;;18.71;38.87;97608.72;2061870;28;20237;-58
2023/02/15 11:49:22;;;;;;;20.02;7.50;;;;;;;20.14;36.84;97611.84;2065829;28;20233;-58
2023/02/15 11:50:27;;;;;;;16.95;7.45;;;;;;;21.74;35.17;97613.84;2065652;28;20226;-60
2023/02/15 11:51:28;;;;;;;15.82;8.30;;;;;;;20.86;35.12;97602.47;2063804;28;20226;-58
2023/02/15 11:52:30;;;;;;;12.77;8.07;;;;;;;20.99;35.64;97600.63;2061389;28;20404;-58
2023/02/15 11:53:35;;;;;;;15.98;7.70;;;;;;;21.14;35.23;97614.63;2057878;28;20245;-58
2023/02/15 11:54:41;;;;;;;13.82;7.57;;;;;;;21.92;34.74;97601.81;2061445;28;20206;-59
2023/02/15 11:55:48;;;;;;;15.38;6.50;;;;;;;22.04;33.74;97608.00;2064060;28;20225;-59
2023/02/15 11:56:50;;;;;;;20.75;6.00;;;;;;;22.34;33.14;97598.66;2062333;28;20203;-59
2023/02/15 11:58:02;;;;;;;20.08;6.13;;;;;;;22.58;32.05;97609.22;2065978;28;20202;-60
2023/02/15 11:59:09;;;;;;;13.57;5.53;;;;;;;21.59;32.99;97603.41;2062492;28;20219;-59
2023/02/15 12:00:35;;;;;;;15.20;5.65;;;;;;;20.71;33.50;97601.78;2062795;28;20248;-60
2023/02/15 12:01:46;;;;;;;15.15;6.05;;;;;;;20.74;33.98;97608.66;2066154;28;20195;-61
2023/02/15 12:02:52;;;;;;;13.25;5.55;;;;;;;22.16;33.25;97598.28;2063748;28;20217;-60
2023/02/15 12:04:18;;;;;;;16.08;5.68;;;;;;;22.86;32.10;97593.72;2056022;28;20242;-59
2023/02/15 12:05:23;;;;;;;15.00;5.95;;;;;;;22.73;32.74;97591.19;2061343;28;20245;-60
2023/02/15 12:06:29;;;;;;;13.85;4.85;;;;;;;23.28;33.35;97599.25;2062545;28;20198;-60
2023/02/15 12:07:36;;;;;;;10.48;6.30;;;;;;;23.35;34.24;97588.94;2063765;28;20598;-60
2023/02/15 12:08:42;;;;;;;12.05;7.38;;;;;;;22.86;35.34;97593.72;2062993;28;20250;-60
2023/02/15 12:09:56;;;;;;;12.77;7.38;;;;;;;23.18;34.81;97597.47;2061058;28;20286;-60
2023/02/15 12:11:05;;;;;;;12.75;7.38;;;;;;;22.79;35.22;97590.72;2065361;28;20541;-60
2023/02/15 12:12:32;;;;;;;14.57;7.80;;;;;;;23.23;34.29;97589.94;2063655;28;20206;-60
2023/02/15 12:13:34;;;;;;;11.88;7.10;;;;;;;23.06;34.34;97584.13;2063923;28;20244;-60
2023/02/15 12:14:56;;;;;;;12.98;7.57;;;;;;;23.03;34.66;97589.69;2065339;28;20237;-60
2023/02/15 12:16:04;;;;;;;12.25;8.23;;;;;;;22.91;35.23;97590.69;2062830;28;20260;-60
2023/02/15 12:17:13;;;;;;;13.25;7.53;;;;;;;23.09;35.30;97588.38;2063293;28;20209;-60
2023/02/15 12:18:25;;;;;;;10.30;7.38;;;;;;;23.39;35.23;97584.19;2065803;28;20198;-60
2023/02/15 12:19:36;;;;;;;17.45;8.85;;;;;;;23.48;35.45;97583.44;2064361;28;20201;-60
2023/02/15 12:20:38;;;;;;;8.98;7.05;;;;;;;23.38;35.63;97588.69;2063551;28;20234;-60
2023/02/15 12:21:41;;;;;;;11.57;7.80;;;;;;;23.12;35.58;97588.97;2062254;28;20390;-60
2023/02/15 12:22:53;;;;;;;10.68;7.43;;;;;;;23.22;35.75;97586.41;2062379;28;20194;-60
2023/02/15 12:24:09;;;;;;;9.20;7.13;;;;;;;22.94;35.94;97580.66;2064152;28;20227;-60
2023/02/15 12:25:25;;;;;;;14.32;8.70;;;;;;;23.02;35.78;97587.16;2063043;28;20198;-60
2023/02/15 12:26:33;;;;;;;12.02;7.97;;;;;;;23.08;36.05;97579.50;2066384;28;21137;-60
2023/02/15 12:27:35;;;;;;;12.18;8.80;;;;;;;23.29;35.61;97584.94;2065068;28;20206;-60
2023/02/15 12:28:41;;;;;;;14.73;9.18;;;;;;;23.00;35.91;97585.47;2063750;28;20319;-60
2023/02/15 12:29:52;;;;;;;11.50;8.38;;;;;;;22.86;36.25;97588.41;2061144;28;20261;-60
2023/02/15 12:30:56;;;;;;;14.43;9.00;;;;;;;22.48;36.51;97586.97;2065639;28;20202;-60
2023/02/15 12:31:59;;;;;;;10.60;8.15;;;;;;;22.34;36.87;97588.84;2064110;28;20355;-60
2023/02/15 12:33:32;;;;;;;15.30;8.55;;;;;;;22.67;36.39;97584.53;2064899;28;20229;-60
2023/02/15 12:34:43;;;;;;;11.45;7.93;;;;;;;22.93;35.95;97589.63;2061743;28;20233;-60
2023/02/15 12:35:49;;;;;;;12.25;8.02;;;;;;;23.14;35.77;97583.50;2063631;28;20703;-60
2023/02/15 12:37:00;;;;;;;9.40;7.15;;;;;;;23.05;36.00;97586.94;2062973;28;20203;-60
2023/02/15 12:38:10;;;;;;;13.88;8.82;;;;;;;22.93;35.93;97583.41;2061869;28;20194;-60
2023/02/15 12:39:11;;;;;;;14.35;8.20;;;;;;;22.91;36.09;97578.22;2064592;28;20557;-60
2023/02/15 12:40:39;;;;;;;12.65;8.70;;;;;;;22.59;36.48;97575.47;2062671;28;20472;-60
2023/02/15 12:41:56;;;;;;;12.93;8.82;;;;;;;22.77;36.07;97568.69;2061997;28;20202;-60
2023/02/15 12:42:58;;;;;;;12.85;8.32;;;;;;;23.00;36.08;97579.31;2064734;28;20216;-60
2023/02/15 12:44:15;;;;;;;12.88;8.98;;;;;;;22.82;35.71;97577.16;2064893;28;20704;-60
2023/02/15 12:45:30;;;;;;;12.55;7.93;;;;;;;22.99;36.37;97573.13;2064713;28;20297;-60
2023/02/15 12:46:32;;;;;;;13.65;8.25;;;;;;;23.15;36.06;97571.94;2061652;28;20198;-60
2023/02/15 12:47:38;;;;;;;12.25;8.80;;;;;;;22.75;36.36;97569.78;2065182;28;20202;-60
2023/02/15 12:48:39;;;;;;;14.02;8.90;;;;;;;22.51;36.53;97562.75;2064455;28;20221;-60
2023/02/15 12:49:42;;;;;;;15.20;8.05;;;;;;;22.78;36.25;97556.22;2061591;28;20206;-60
2023/02/15 12:50:49;;;;;;;15.48;8.40;;;;;;;22.95;36.04;97561.03;2059915;28;20209;-60
2023/02/15 12:52:06;;;;;;;13.82;8.50;;;;;;;22.94;35.69;97566.47;2063588;28;20561;-60
2023/02/15 12:53:15;;;;;;;11.68;8.35;;;;;;;23.03;35.58;97565.72;2061424;28;20199;-60
2023/02/15 12:54:40;;;;;;;13.45;8.65;;;;;;;23.18;35.52;97563.66;2061952;28;20199;-60
2023/02/15 12:55:55;;;;;;;14.68;7.45;;;;;;;22.97;35.82;97564.41;2060992;28;20210;-60
2023/02/15 12:56:58;;;;;;;13.77;8.57;;;;;;;22.85;36.03;97554.75;2062158;28;20202;-60
2023/02/15 12:58:18;;;;;;;12.75;7.88;;;;;;;23.17;36.41;97564.63;2062435;28;20225;-60
2023/02/15 12:59:20;;;;;;;12.43;7.28;;;;;;;22.94;37.38;97559.34;2063645;28;20198;-60
2023/02/15 13:00:27;;;;;;;11.25;7.28;;;;;;;22.95;36.84;97568.19;2063091;28;20219;-63
2023/02/15 13:01:32;;;;;;;16.23;8.70;;;;;;;22.95;36.95;97563.69;2064434;28;20213;-60
2023/02/15 13:02:46;;;;;;;15.65;9.05;;;;;;;23.12;36.83;97564.13;2060551;28;20559;-60
2023/02/15 13:03:57;;;;;;;15.77;9.27;;;;;;;23.05;36.66;97555.81;2062849;28;20283;-60
2023/02/15 13:05:18;;;;;;;21.25;9.65;;;;;;;22.75;36.92;97557.28;2064367;28;20285;-60
2023/02/15 13:06:20;;;;;;;18.08;9.63;;;;;;;22.90;36.54;97552.56;2062679;28;20683;-61
2023/02/15 13:07:25;;;;;;;14.52;8.50;;;;;;;23.03;36.43;97548.91;2063584;28;20198;-62
2023/02/15 13:08:30;;;;;;;18.92;8.93;;;;;;;22.73;36.37;97553.94;2061145;28;20234;-61
2023/02/15 13:09:31;;;;;;;17.08;9.02;;;;;;;22.98;35.43;97549.28;2065641;28;20206;-61
2023/02/15 13:10:52;;;;;;;15.27;8.05;;;;;;;23.16;36.31;97554.97;2063305;28;20948;-60
2023/02/15 13:11:53;;;;;;;17.88;8.80;;;;;;;22.97;35.33;97548.44;2062989;28;20207;-61
2023/02/15 13:12:57;;;;;;;13.05;8.32;;;;;;;23.35;35.52;97548.13;2063195;28;20297;-62
2023/02/15 13:14:02;;;;;;;10.20;7.18;;;;;;;23.51;34.76;97553.88;2061310;28;20909;-63
2023/02/15 13:15:43;;;;;;;36.55;22.52;;;;;;;23.02;34.54;97549.88;2063489;28;20217;-62
2023/02/15 13:16:47;;;;;;;179.02;112.65;;;;;;;23.33;33.17;97550.91;2063831;28;20222;-63
2023/02/15 13:17:49;;;;;;;73.82;45.78;;;;;;;23.10;33.24;97536.78;2065238;28;20198;-61
2023/02/15 13:18:51;;;;;;;16.33;10.85;;;;;;;23.42;32.71;97542.16;2070722;28;20617;-64
2023/02/15 13:19:56;;;;;;;14.57;6.45;;;;;;;23.46;32.35;97540.06;2071594;28;20198;-62
2023/02/15 13:21:09;;;;;;;12.68;6.60;;;;;;;23.23;32.05;97539.31;2064185;28;20747;-62
2023/02/15 13:22:24;;;;;;;9.15;6.05;;;;;;;23.53;31.81;97543.06;2061225;28;20210;-62
2023/02/15 13:23:31;;;;;;;10.88;6.57;;;;;;;23.65;30.87;97534.03;2071622;28;20243;-62
2023/02/15 13:24:37;;;;;;;12.95;5.38;;;;;;;23.67;31.19;97539.25;2074733;28;20197;-62
2023/02/15 13:25:50;;;;;;;11.63;6.55;;;;;;;23.60;31.03;97533.59;2072598;28;20676;-62
2023/02/15 13:26:55;;;;;;;9.10;5.88;;;;;;;23.54;31.22;97534.97;2070034;28;20703;-62
2023/02/15 13:28:18;;;;;;;8.00;5.82;;;;;;;23.48;30.75;97524.81;2070041;28;20244;-62
2023/02/15 13:29:27;;;;;;;9.90;5.75;;;;;;;23.09;31.26;97527.94;2074433;28;20201;-62
2023/02/15 13:30:34;;;;;;;7.70;5.82;;;;;;;23.36;31.38;97531.16;2076579;28;20224;-62
2023/02/15 13:31:36;;;;;;;11.10;5.88;;;;;;;23.09;31.27;97527.09;2076751;28;20194;-61
2023/02/15 13:32:40;;;;;;;9.15;5.72;;;;;;;23.36;31.16;97528.50;2071263;28;20676;-61
2023/02/15 13:33:46;;;;;;;9.93;5.65;;;;;;;23.34;31.29;97530.44;2071036;28;20230;-62
2023/02/15 13:34:48;;;;;;;9.55;5.72;;;;;;;23.00;30.91;97518.88;2069087;28;20201;-62
2023/02/15 13:36:17;;;;;;;7.97;5.85;;;;;;;22.79;31.85;97520.63;2074772;28;20209;-62
2023/02/15 13:37:53;;;;;;;9.70;5.57;;;;;;;22.71;32.26;97520.41;2074200;28;20198;-63
2023/02/15 13:39:08;;;;;;;9.02;5.63;;;;;;;22.68;32.76;97513.53;2074500;28;20312;-63
2023/02/15 13:40:25;;;;;;;9.82;6.07;;;;;;;22.86;32.87;97513.03;2072064;28;20201;-63
2023/02/15 13:42:13;;;;;;;8.65;5.53;;;;;;;22.83;32.85;97506.97;2073047;28;20232;-62
2023/02/15 13:43:37;;;;;;;10.50;6.00;;;;;;;23.19;32.14;97524.56;2074467;28;20193;-63
2023/02/15 13:44:49;;;;;;;11.25;5.72;;;;;;;23.15;31.80;97513.31;2072990;28;20209;-62
2023/02/15 13:46:12;;;;;;;14.30;6.55;;;;;;;22.71;32.48;97509.78;2070823;28;20229;-63
2023/02/15 13:47:24;;;;;;;11.70;6.30;;;;;;;22.90;32.72;97507.28;2072088;28;20420;-63
2023/02/15 13:48:31;;;;;;;14.30;6.50;;;;;;;22.83;33.04;97511.44;2072204;28;20232;-62
2023/02/15 13:49:56;;;;;;;9.82;7.00;;;;;;;23.09;32.46;97513.78;2070093;28;20529;-63
2023/02/15 13:51:03;;;;;;;9.55;6.20;;;;;;;23.11;32.42;97514.53;2074099;28;20205;-62
2023/02/15 13:52:18;;;;;;;9.88;6.60;;;;;;;23.26;31.51;97510.63;2075024;28;20801;-62
2023/02/15 13:53:44;;;;;;;10.27;6.32;;;;;;;23.05;31.78;97517.69;2071799;28;20696;-62
2023/02/15 13:55:05;;;;;;;10.25;6.40;;;;;;;23.07;31.39;97515.72;2075174;28;20196;-62
2023/02/15 13:56:25;;;;;;;9.77;5.97;;;;;;;23.02;31.99;97509.94;2073214;28;20198;-62
2023/02/15 13:57:45;;;;;;;12.63;6.90;;;;;;;22.57;32.11;97508.22;2072348;28;20202;-63
2023/02/15 13:59:03;;;;;;;13.02;7.25;;;;;;;22.60;32.03;97508.81;2069593;28;20225;-63
2023/02/15 14:00:14;;;;;;;11.05;6.43;;;;;;;22.96;31.70;97503.31;2069066;28;20198;-63
2023/02/15 14:01:47;;;;;;;11.82;7.68;;;;;;;23.06;31.45;97503.38;2069334;28;20197;-63
2023/02/15 14:03:13;;;;;;;9.50;6.75;;;;;;;22.94;31.81;97500.78;2064694;28;20570;-62
2023/02/15 14:05:03;;;;;;;11.73;6.50;;;;;;;22.86;32.49;97502.38;2072899;28;20255;-62